createdAt,value
2019-04-06T00:01:47.866Z,68.17
2019-04-06T00:04:15.379Z,79.93
2019-04-06T00:06:42.971Z,76.83
2019-04-06T00:09:10.588Z,68.63
2019-04-06T00:11:38.062Z,78.33
2019-04-06T00:14:05.476Z,74.93
2019-04-06T00:16:34.222Z,73.30
2019-04-06T00:19:01.774Z,70.50
2019-04-06T00:21:30.321Z,70.90
2019-04-06T00:23:57.903Z,80.23
2019-04-06T00:26:25.563Z,67.10
2019-04-06T00:28:53.065Z,71.80
2019-04-06T00:31:45.793Z,65.00
2019-04-06T00:34:13.372Z,71.53
2019-04-06T00:36:41.063Z,73.70
2019-04-06T00:39:08.597Z,76.57
2019-04-06T00:41:36.247Z,69.10
2019-04-06T00:44:03.752Z,66.07
2019-04-06T00:46:31.430Z,74.37
2019-04-06T00:48:58.884Z,70.37
2019-04-06T00:51:26.413Z,71.23
2019-04-06T00:53:53.887Z,71.50
2019-04-06T00:56:21.506Z,77.63
2019-04-06T00:58:49.306Z,77.80
2019-04-06T01:01:16.961Z,71.20
2019-04-06T01:03:44.383Z,68.80
2019-04-06T01:06:11.976Z,70.97
2019-04-06T01:08:39.523Z,75.00
2019-04-06T01:11:07.108Z,73.83
2019-04-06T01:13:34.593Z,76.10
2019-04-06T01:16:02.116Z,71.77
2019-04-06T01:18:29.828Z,82.33
2019-04-06T01:20:57.370Z,80.43
2019-04-06T01:23:26.220Z,79.77
2019-04-06T01:25:53.850Z,70.70
2019-04-06T01:28:21.443Z,70.97
2019-04-06T01:30:48.903Z,74.77
2019-04-06T01:33:16.375Z,75.10
2019-04-06T01:35:43.848Z,80.47
2019-04-06T01:38:11.298Z,83.12
2019-04-06T01:40:38.734Z,80.63
2019-04-06T01:43:06.247Z,73.40
2019-04-06T01:45:33.681Z,85.10
2019-04-06T01:48:01.166Z,85.57
2019-04-06T01:50:28.642Z,90.80
2019-04-06T01:52:56.230Z,97.90
2019-04-06T01:55:25.277Z,89.47
2019-04-06T01:57:52.762Z,94.93
2019-04-06T02:00:20.253Z,95.30
2019-04-06T02:02:50.329Z,102.43
2019-04-06T02:05:18.048Z,107.03
2019-04-06T02:07:45.603Z,85.83
2019-04-06T02:10:13.466Z,96.87
2019-04-06T02:12:41.074Z,92.83
2019-04-06T02:15:08.898Z,101.73
2019-04-06T02:17:36.461Z,96.07
2019-04-06T02:20:05.215Z,105.37
2019-04-06T02:22:32.845Z,104.17
2019-04-06T02:25:00.402Z,98.40
2019-04-06T02:27:28.036Z,85.37
2019-04-06T02:30:13.407Z,90.33
2019-04-06T02:32:59.185Z,89.03
2019-04-06T02:35:39.259Z,89.30
2019-04-06T02:38:16.008Z,92.30
2019-04-06T02:40:52.636Z,94.37
2019-04-06T02:43:23.002Z,86.60
2019-04-06T02:45:50.980Z,92.90
2019-04-06T02:48:18.648Z,84.27
2019-04-06T02:50:46.135Z,84.47
2019-04-06T02:53:13.550Z,86.90
2019-04-06T02:55:40.989Z,92.37
2019-04-06T02:58:08.853Z,87.13
2019-04-06T03:00:36.367Z,79.03
2019-04-06T03:03:03.754Z,91.00
2019-04-06T03:05:31.418Z,99.00
2019-04-06T03:07:59.284Z,95.27
2019-04-06T03:10:26.868Z,81.70
2019-04-06T03:12:54.283Z,85.17
2019-04-06T03:15:21.935Z,93.80
2019-04-06T03:17:49.511Z,96.63
2019-04-06T03:20:17.440Z,86.73
2019-04-06T03:22:45.037Z,92.23
2019-04-06T03:25:12.917Z,101.77
2019-04-06T03:27:40.389Z,82.43
2019-04-06T03:30:09.358Z,102.33
2019-04-06T03:32:37.053Z,88.13
2019-04-06T03:35:04.746Z,90.23
2019-04-06T03:37:32.603Z,94.07
2019-04-06T03:40:00.191Z,86.10
2019-04-06T03:42:27.796Z,99.90
2019-04-06T03:44:55.303Z,85.40
2019-04-06T03:47:22.911Z,83.73
2019-04-06T03:49:50.529Z,90.37
2019-04-06T03:52:18.079Z,79.97
2019-04-06T03:54:45.696Z,83.20
2019-04-06T03:57:16.815Z,86.20
2019-04-06T03:59:43.998Z,84.20
2019-04-06T04:02:11.930Z,94.43
2019-04-06T04:04:39.826Z,78.10
2019-04-06T04:07:07.520Z,93.97
2019-04-06T04:09:35.124Z,84.20
2019-04-06T04:12:02.996Z,78.77
2019-04-06T04:14:30.471Z,75.57
2019-04-06T04:16:58.143Z,88.23
2019-04-06T04:19:25.683Z,84.70
2019-04-06T04:21:53.336Z,85.57
2019-04-06T04:24:23.846Z,80.60
2019-04-06T04:26:51.413Z,78.13
2019-04-06T04:29:18.947Z,82.73
2019-04-06T04:31:46.455Z,81.13
2019-04-06T04:34:13.917Z,79.17
2019-04-06T04:36:41.454Z,85.90
2019-04-06T04:39:09.075Z,60.87
2019-04-06T04:41:39.577Z,74.87
2019-04-06T04:44:06.340Z,81.10
2019-04-06T04:46:34.384Z,77.73
2019-04-06T04:49:01.813Z,89.63
2019-04-06T04:51:29.233Z,86.20
2019-04-06T04:53:57.172Z,67.50
2019-04-06T04:56:25.815Z,86.77
2019-04-06T04:58:54.431Z,80.00
2019-04-06T05:01:22.733Z,82.67
2019-04-06T05:03:50.387Z,74.53
2019-04-06T05:06:17.995Z,61.87
2019-04-06T05:08:45.700Z,71.67
2019-04-06T05:11:13.430Z,82.10
2019-04-06T05:13:40.861Z,83.27
2019-04-06T05:16:10.107Z,77.87
2019-04-06T05:18:38.259Z,79.10
2019-04-06T05:21:05.772Z,78.47
2019-04-06T05:23:33.527Z,81.70
2019-04-06T05:26:03.233Z,84.47
2019-04-06T05:28:30.768Z,78.20
2019-04-06T05:30:58.475Z,90.90
2019-04-06T05:33:25.848Z,82.27
2019-04-06T05:35:53.436Z,91.53
2019-04-06T05:38:20.968Z,87.23
2019-04-06T05:40:48.696Z,90.92
2019-04-06T05:43:16.334Z,84.10
2019-04-06T05:45:43.859Z,96.45
2019-04-06T05:48:11.271Z,89.80
2019-04-06T05:50:38.605Z,91.43
2019-04-06T05:53:06.146Z,83.57
2019-04-06T05:55:33.807Z,87.73
2019-04-06T05:58:03.958Z,91.07
2019-04-06T06:00:31.056Z,88.93
2019-04-06T06:03:01.835Z,88.37
2019-04-06T06:05:29.415Z,92.70
2019-04-06T06:07:57.343Z,96.70
2019-04-06T06:10:25.663Z,84.97
2019-04-06T06:12:53.251Z,94.80
2019-04-06T06:15:20.916Z,82.03
2019-04-06T06:17:48.776Z,94.40
2019-04-06T06:20:16.495Z,91.10
2019-04-06T06:22:44.081Z,87.50
2019-04-06T06:25:14.096Z,103.60
2019-04-06T06:27:42.237Z,81.50
2019-04-06T06:30:10.712Z,109.17
2019-04-06T06:32:38.422Z,96.00
2019-04-06T06:35:06.121Z,89.27
2019-04-06T06:37:33.928Z,97.90
2019-04-06T06:40:02.321Z,104.03
2019-04-06T06:42:35.460Z,98.30
2019-04-06T06:45:04.046Z,99.13
2019-04-06T06:47:31.784Z,97.63
2019-04-06T06:49:59.535Z,102.70
2019-04-06T06:52:28.567Z,96.30
2019-04-06T06:54:56.315Z,85.67
2019-04-06T06:57:24.175Z,90.70
2019-04-06T06:59:51.833Z,86.70
2019-04-06T07:02:19.573Z,74.50
2019-04-06T07:04:47.128Z,88.17
2019-04-06T07:07:14.635Z,87.10
2019-04-06T07:09:42.223Z,75.47
2019-04-06T07:12:09.753Z,71.83
2019-04-06T07:14:37.528Z,86.80
2019-04-06T07:17:05.414Z,79.70
2019-04-06T07:19:32.987Z,78.57
2019-04-06T07:22:00.965Z,80.03
2019-04-06T07:24:28.540Z,79.10
2019-04-06T07:26:56.115Z,83.43
2019-04-06T07:29:23.824Z,80.37
2019-04-06T07:31:51.708Z,81.17
2019-04-06T07:34:20.588Z,73.83
2019-04-06T07:36:48.142Z,72.70
2019-04-06T07:39:15.780Z,67.67
2019-04-06T07:41:43.351Z,64.53
2019-04-06T07:44:11.013Z,67.13
2019-04-06T07:46:38.658Z,70.97
2019-04-06T07:49:09.327Z,69.87
2019-04-06T07:51:35.796Z,70.03
2019-04-06T07:54:03.625Z,72.03
2019-04-06T07:56:31.374Z,66.63
2019-04-06T07:58:59.758Z,62.37
2019-04-06T08:01:27.212Z,68.77
2019-04-06T08:03:56.063Z,66.43
2019-04-06T08:06:23.717Z,69.47
2019-04-06T08:08:51.387Z,68.00
2019-04-06T08:11:19.163Z,68.00
2019-04-06T08:13:47.156Z,62.83
2019-04-06T08:16:14.874Z,66.27
2019-04-06T08:18:45.327Z,62.00
2019-04-06T08:21:13.580Z,67.50
2019-04-06T08:23:41.193Z,62.27
2019-04-06T08:26:08.990Z,60.33
2019-04-06T08:28:36.901Z,58.53
2019-04-06T08:31:04.671Z,63.80
2019-04-06T08:33:33.490Z,60.40
2019-04-06T08:36:01.145Z,64.13
2019-04-06T08:38:29.750Z,61.80
2019-04-06T08:40:57.263Z,59.35
2019-04-06T08:43:25.421Z,59.27
2019-04-06T08:45:53.381Z,63.40
2019-04-06T08:48:21.021Z,64.10
2019-04-06T08:50:50.446Z,64.27
2019-04-06T08:53:18.045Z,61.87
2019-04-06T08:55:45.660Z,64.27
2019-04-06T08:58:13.430Z,61.27
2019-04-06T09:00:41.242Z,61.40
2019-04-06T09:03:08.855Z,61.63
2019-04-06T09:05:36.886Z,69.33
2019-04-06T09:08:04.653Z,61.97
2019-04-06T09:10:33.279Z,61.40
2019-04-06T09:13:01.188Z,59.73
2019-04-06T09:15:28.985Z,65.10
2019-04-06T09:17:56.754Z,64.10
2019-04-06T09:20:24.578Z,63.90
2019-04-06T09:22:52.434Z,59.00
2019-04-06T09:25:20.438Z,58.93
2019-04-06T09:27:48.223Z,61.00
2019-04-06T09:30:15.941Z,64.22
2019-04-06T09:32:43.685Z,58.30
2019-04-06T09:35:13.934Z,63.17
2019-04-06T09:37:42.578Z,63.00
2019-04-06T09:40:10.362Z,56.83
2019-04-06T09:42:38.241Z,61.93
2019-04-06T09:45:48.494Z,63.40
2019-04-06T09:48:36.914Z,59.30
2019-04-06T09:51:20.110Z,57.70
2019-04-06T09:54:10.525Z,62.23
2019-04-06T09:56:54.907Z,57.20
2019-04-06T09:59:36.040Z,64.93
2019-04-06T10:02:11.963Z,54.10
2019-04-06T10:04:53.038Z,58.87
2019-04-06T10:07:35.752Z,60.83
2019-04-06T10:10:19.731Z,58.83
2019-04-06T10:13:06.439Z,60.47
2019-04-06T10:15:59.394Z,56.47
2019-04-06T10:18:36.274Z,55.40
2019-04-06T10:21:23.755Z,55.87
2019-04-06T10:23:59.968Z,60.17
2019-04-06T10:26:53.385Z,58.23
2019-04-06T10:29:33.152Z,60.47
2019-04-06T10:32:20.271Z,56.83
2019-04-06T10:35:08.710Z,56.33
2019-04-06T10:37:59.330Z,58.53
2019-04-06T10:40:46.584Z,59.40
2019-04-06T10:43:24.401Z,59.58
2019-04-06T10:46:45.617Z,58.63
2019-04-06T10:49:38.750Z,57.67
2019-04-06T10:52:16.575Z,55.77
2019-04-06T10:55:03.823Z,52.23
2019-04-06T10:58:01.635Z,53.30
2019-04-06T11:00:55.231Z,50.43
2019-04-06T11:03:45.525Z,53.57
2019-04-06T11:06:32.615Z,52.17
2019-04-06T11:09:32.550Z,54.30
2019-04-06T11:12:20.644Z,54.87
2019-04-06T11:15:00.532Z,53.47
2019-04-06T11:17:56.892Z,51.93
2019-04-06T11:20:49.774Z,52.30
2019-04-06T11:23:42.300Z,50.17
2019-04-06T11:26:32.011Z,47.00
2019-04-06T11:29:11.137Z,56.50
2019-04-06T11:31:54.617Z,54.50
2019-04-06T11:34:32.905Z,50.00
2019-04-06T11:37:18.851Z,45.30
2019-04-06T11:39:58.451Z,43.70
2019-04-06T11:42:32.730Z,48.40
2019-04-06T11:45:18.466Z,44.80
2019-04-06T11:47:53.089Z,40.80
2019-04-06T11:50:52.932Z,41.80
2019-04-06T11:53:27.237Z,41.67
2019-04-06T11:56:20.205Z,37.37
2019-04-06T11:58:53.915Z,38.40
2019-04-06T12:01:43.844Z,41.28
2019-04-06T12:04:31.061Z,36.33
2019-04-06T12:07:33.701Z,41.27
2019-04-06T12:10:29.872Z,33.60
2019-04-06T12:13:16.907Z,35.80
2019-04-06T12:16:13.364Z,35.27
2019-04-06T12:18:47.221Z,33.83
2019-04-06T12:21:37.623Z,32.37
2019-04-06T12:24:17.204Z,35.55
2019-04-06T12:27:08.699Z,33.73
2019-04-06T12:29:48.562Z,33.40
2019-04-06T12:32:44.465Z,30.60
2019-04-06T12:35:46.554Z,28.90
2019-04-06T12:38:32.542Z,27.37
2019-04-06T12:41:18.340Z,30.60
2019-04-06T12:44:09.914Z,29.97
2019-04-06T12:47:00.927Z,33.00
2019-04-06T12:49:46.503Z,31.33
2019-04-06T12:52:32.632Z,31.57
2019-04-06T12:55:08.929Z,34.67
2019-04-06T12:57:47.797Z,31.60
2019-04-06T13:00:33.458Z,32.88
2019-04-06T13:03:15.762Z,32.90
2019-04-06T13:05:56.194Z,32.07
2019-04-06T13:08:44.439Z,31.60
2019-04-06T13:11:30.358Z,31.80
2019-04-06T13:14:03.887Z,33.73
2019-04-06T13:16:42.589Z,31.73
2019-04-06T13:19:45.023Z,35.40
2019-04-06T13:22:34.801Z,32.27
2019-04-06T13:25:26.713Z,30.43
2019-04-06T13:28:12.948Z,32.80
2019-04-06T13:31:06.578Z,30.67
2019-04-06T13:33:44.615Z,30.95
2019-04-06T13:36:31.755Z,33.17
2019-04-06T13:39:24.880Z,35.10
2019-04-06T13:42:24.053Z,32.83
2019-04-06T13:45:17.029Z,33.27
2019-04-06T13:48:00.653Z,33.87
2019-04-06T13:50:52.211Z,30.70
2019-04-06T13:53:37.762Z,33.70
2019-04-06T13:56:18.686Z,30.50
2019-04-06T13:58:52.774Z,34.58
2019-04-06T14:01:40.791Z,31.03
2019-04-06T14:04:28.104Z,31.33
2019-04-06T14:07:16.407Z,32.30
2019-04-06T14:10:19.011Z,29.57
2019-04-06T14:12:59.929Z,29.73
2019-04-06T14:15:47.294Z,27.57
2019-04-06T14:18:25.493Z,30.23
2019-04-06T14:21:17.702Z,27.27
2019-04-06T14:23:59.804Z,27.70
2019-04-06T14:26:50.079Z,25.87
2019-04-06T14:29:24.995Z,23.10
2019-04-06T14:31:58.542Z,25.30
2019-04-06T14:34:45.850Z,25.90
2019-04-06T14:37:32.082Z,25.87
2019-04-06T14:40:17.846Z,18.32
2019-04-06T14:43:03.539Z,22.40
2019-04-06T14:46:05.282Z,19.73
2019-04-06T14:48:51.244Z,19.83
2019-04-06T14:51:28.031Z,21.53
2019-04-06T14:54:26.356Z,22.33
2019-04-06T14:57:18.864Z,22.30
2019-04-06T15:00:04.758Z,23.60
2019-04-06T15:02:51.366Z,25.48
2019-04-06T15:05:54.023Z,22.20
2019-04-06T15:08:29.396Z,23.77
2019-04-06T15:11:07.899Z,23.77
2019-04-06T15:13:44.544Z,26.03
2019-04-06T15:16:47.050Z,24.87
2019-04-06T15:19:33.807Z,24.40
2019-04-06T15:22:27.664Z,24.03
2019-04-06T15:25:04.762Z,26.57
2019-04-06T15:27:42.338Z,24.60
2019-04-06T15:30:33.085Z,24.50
2019-04-06T15:33:20.843Z,25.27
2019-04-06T15:36:09.987Z,24.47
2019-04-06T15:38:53.347Z,23.77
2019-04-06T15:41:28.381Z,26.10
2019-04-06T15:44:34.293Z,26.52
2019-04-06T15:47:20.388Z,25.55
2019-04-06T15:50:25.884Z,26.73
2019-04-06T15:53:18.983Z,28.53
2019-04-06T15:56:05.691Z,27.63
2019-04-06T15:58:54.418Z,26.30
2019-04-06T16:01:40.794Z,27.33
2019-04-06T16:04:20.213Z,27.33
2019-04-06T16:07:07.340Z,25.30
2019-04-06T16:10:03.522Z,24.77
2019-04-06T16:13:01.437Z,26.17
2019-04-06T16:15:46.654Z,25.13
2019-04-06T16:18:33.913Z,26.37
2019-04-06T16:21:16.591Z,25.43
2019-04-06T16:24:01.705Z,27.50
2019-04-06T16:26:24.047Z,25.87
2019-04-06T16:29:03.398Z,26.95
2019-04-06T16:31:49.294Z,29.40
2019-04-06T16:34:35.117Z,29.12
2019-04-06T16:37:13.305Z,28.73
2019-04-06T16:39:58.869Z,28.37
2019-04-06T16:42:44.949Z,31.33
2019-04-06T16:45:37.851Z,28.73
2019-04-06T16:48:25.034Z,29.97
2019-04-06T16:51:15.119Z,31.03
2019-04-06T16:54:02.020Z,32.28
2019-04-06T16:56:51.884Z,32.00
2019-04-06T16:59:44.659Z,32.78
2019-04-06T17:02:46.762Z,40.77
2019-04-06T17:05:52.199Z,60.13
2019-04-06T17:08:38.673Z,36.33
2019-04-06T17:11:34.787Z,45.23
2019-04-06T17:14:41.923Z,51.83
2019-04-06T17:17:15.107Z,38.47
2019-04-06T17:20:09.523Z,59.30
2019-04-06T17:22:44.083Z,60.10
2019-04-06T17:25:33.907Z,80.60
2019-04-06T17:28:30.145Z,60.97
2019-04-06T17:31:20.074Z,59.47
2019-04-06T17:34:07.097Z,47.30
2019-04-06T17:37:03.890Z,38.17
2019-04-06T17:40:06.590Z,39.40
2019-04-06T17:42:42.855Z,37.35
2019-04-06T17:45:40.125Z,35.93
2019-04-06T17:48:30.493Z,35.57
2019-04-06T17:51:20.411Z,45.87
2019-04-06T17:54:16.315Z,64.37
2019-04-06T17:57:09.011Z,122.33
2019-04-06T17:59:55.088Z,90.37
2019-04-06T18:02:51.674Z,43.80
2019-04-06T18:05:27.259Z,44.88
2019-04-06T18:08:21.237Z,37.43
2019-04-06T18:11:08.717Z,39.07
2019-04-06T18:13:48.154Z,37.07
2019-04-06T18:16:17.953Z,41.07
2019-04-06T18:18:45.663Z,37.53
2019-04-06T18:21:13.260Z,36.98
2019-04-06T18:23:40.875Z,38.07
2019-04-06T18:26:09.254Z,36.70
2019-04-06T18:28:37.154Z,38.97
2019-04-06T18:31:12.296Z,33.50
2019-04-06T18:33:40.151Z,36.87
2019-04-06T18:36:08.902Z,39.27
2019-04-06T18:38:42.516Z,36.60
2019-04-06T18:41:09.543Z,37.03
2019-04-06T18:43:37.324Z,39.00
2019-04-06T18:46:05.932Z,39.40
2019-04-06T18:48:33.881Z,39.83
2019-04-06T18:51:02.176Z,39.53
2019-04-06T18:53:29.945Z,39.50
2019-04-06T18:55:58.497Z,35.80
2019-04-06T18:58:26.123Z,39.30
2019-04-06T19:00:54.019Z,36.13
2019-04-06T19:03:24.145Z,39.00
2019-04-06T19:05:52.295Z,40.70
2019-04-06T19:08:23.273Z,38.67
2019-04-06T19:10:51.270Z,40.60
2019-04-06T19:13:21.826Z,45.40
2019-04-06T19:15:50.043Z,36.33
2019-04-06T19:18:18.408Z,45.83
2019-04-06T19:20:46.173Z,35.57
2019-04-06T19:23:15.006Z,33.23
2019-04-06T19:25:43.301Z,36.53
2019-04-06T19:28:11.092Z,37.38
2019-04-06T19:30:38.803Z,38.70
2019-04-06T19:33:06.695Z,42.35
2019-04-06T19:35:34.799Z,39.40
2019-04-06T19:38:02.522Z,41.97
2019-04-06T19:40:30.289Z,38.17
2019-04-06T19:42:58.187Z,38.93
2019-04-06T19:45:25.959Z,44.87
2019-04-06T19:47:54.042Z,40.47
2019-04-06T19:50:22.169Z,49.40
2019-04-06T19:52:49.901Z,71.07
2019-04-06T19:55:20.323Z,58.93
2019-04-06T19:57:48.011Z,62.03
2019-04-06T20:00:16.658Z,56.93
2019-04-06T20:02:44.737Z,44.20
2019-04-06T20:05:12.407Z,50.63
2019-04-06T20:07:40.293Z,49.17
2019-04-06T20:10:08.598Z,45.30
2019-04-06T20:12:36.231Z,40.83
2019-04-06T20:15:05.322Z,45.80
2019-04-06T20:17:35.444Z,47.65
2019-04-06T20:20:04.007Z,43.83
2019-04-06T20:22:32.281Z,49.58
2019-04-06T20:25:00.156Z,41.03
2019-04-06T20:27:28.934Z,40.47
2019-04-06T20:29:56.874Z,38.97
2019-04-06T20:32:24.607Z,38.50
2019-04-06T20:34:52.250Z,36.50
2019-04-06T20:37:20.578Z,35.07
2019-04-06T20:39:48.270Z,35.50
2019-04-06T20:42:15.787Z,34.33
2019-04-06T20:44:43.618Z,34.18
2019-04-06T20:47:11.483Z,31.20
2019-04-06T20:49:39.679Z,35.20
2019-04-06T20:52:08.155Z,31.43
2019-04-06T20:54:39.548Z,29.07
2019-04-06T20:57:07.851Z,26.70
2019-04-06T20:59:36.695Z,28.03
2019-04-06T21:02:04.467Z,25.30
2019-04-06T21:04:34.754Z,29.30
2019-04-06T21:07:02.297Z,27.97
2019-04-06T21:09:30.529Z,29.60
2019-04-06T21:11:58.391Z,28.20
2019-04-06T21:14:26.076Z,27.93
2019-04-06T21:16:53.727Z,27.20
2019-04-06T21:19:21.350Z,27.90
2019-04-06T21:21:53.521Z,27.20
2019-04-06T21:24:21.540Z,28.60
2019-04-06T21:26:49.007Z,26.23
2019-04-06T21:29:19.070Z,27.50
2019-04-06T21:31:47.333Z,25.50
2019-04-06T21:34:16.800Z,25.17
2019-04-06T21:36:44.541Z,25.90
2019-04-06T21:39:12.176Z,25.70
2019-04-06T21:41:39.923Z,24.27
2019-04-06T21:44:07.553Z,26.73
2019-04-06T21:46:35.632Z,25.07
2019-04-06T21:49:03.548Z,25.67
2019-04-06T21:51:32.389Z,24.90
2019-04-06T21:54:00.040Z,24.13
2019-04-06T21:56:27.558Z,22.60
2019-04-06T21:58:56.693Z,22.17
2019-04-06T22:01:25.342Z,25.07
2019-04-06T22:03:53.074Z,24.10
2019-04-06T22:06:20.696Z,24.57
2019-04-06T22:08:48.420Z,24.90
2019-04-06T22:11:16.460Z,26.27
2019-04-06T22:13:44.456Z,25.03
2019-04-06T22:16:11.967Z,27.95
2019-04-06T22:18:39.506Z,25.80
2019-04-06T22:21:07.129Z,28.65
2019-04-06T22:23:42.150Z,28.03
2019-04-06T22:26:04.318Z,27.10
2019-04-06T22:28:32.260Z,27.30
2019-04-06T22:30:59.900Z,29.20
2019-04-06T22:33:27.638Z,28.67
2019-04-06T22:35:55.731Z,27.30
2019-04-06T22:38:23.723Z,26.80
2019-04-06T22:40:52.018Z,32.90
2019-04-06T22:43:20.422Z,29.27
2019-04-06T22:45:48.150Z,28.13
2019-04-06T22:48:15.670Z,29.43
2019-04-06T22:50:43.276Z,28.40
2019-04-06T22:53:10.978Z,28.37
2019-04-06T22:55:38.995Z,30.77
2019-04-06T22:58:06.794Z,29.03
2019-04-06T23:00:45.472Z,30.10
2019-04-06T23:03:35.508Z,29.10
2019-04-06T23:06:09.783Z,29.47
2019-04-06T23:08:37.457Z,29.73
2019-04-06T23:11:05.014Z,28.73
2019-04-06T23:13:34.876Z,29.90
2019-04-06T23:16:03.630Z,30.23
2019-04-06T23:18:31.459Z,30.83
2019-04-06T23:20:58.968Z,30.43
2019-04-06T23:23:26.491Z,32.37
2019-04-06T23:25:54.200Z,33.77
2019-04-06T23:28:21.804Z,32.90
2019-04-06T23:30:49.241Z,33.53
2019-04-06T23:33:16.755Z,33.53
2019-04-06T23:35:46.082Z,34.33
2019-04-06T23:38:13.978Z,32.20
2019-04-06T23:40:42.054Z,34.37
2019-04-06T23:43:09.819Z,34.27
2019-04-06T23:45:38.223Z,33.63
2019-04-06T23:48:05.970Z,35.77
2019-04-06T23:50:33.528Z,35.70
2019-04-06T23:53:01.418Z,34.83
2019-04-06T23:55:29.949Z,34.53
2019-04-06T23:58:00.741Z,37.70
